createdAt,value
2022-10-04T00:01:58.305Z,2.03
2022-10-04T00:04:26.240Z,3.97
2022-10-04T00:07:13.701Z,3.07
2022-10-04T00:10:15.889Z,3.50
2022-10-04T00:12:50.652Z,2.13
2022-10-04T00:15:27.202Z,3.70
2022-10-04T00:18:12.439Z,2.93
2022-10-04T00:20:53.116Z,2.47
2022-10-04T00:23:23.555Z,2.70
2022-10-04T00:25:57.358Z,5.33
2022-10-04T00:28:28.429Z,4.13
2022-10-04T00:31:19.529Z,5.00
2022-10-04T00:33:47.099Z,3.23
2022-10-04T00:36:26.515Z,2.47
2022-10-04T00:39:09.025Z,3.33
2022-10-04T00:41:48.500Z,4.53
2022-10-04T00:44:27.373Z,5.53
2022-10-04T00:46:57.293Z,3.50
2022-10-04T00:49:32.123Z,2.50
2022-10-04T00:52:12.119Z,3.80
2022-10-04T00:54:44.471Z,2.40
2022-10-04T00:57:24.486Z,4.37
2022-10-04T01:00:03.794Z,2.90
2022-10-04T01:02:47.829Z,2.23
2022-10-04T01:05:20.054Z,4.00
2022-10-04T01:08:05.275Z,2.60
2022-10-04T01:10:43.296Z,2.90
2022-10-04T01:13:20.926Z,2.93
2022-10-04T01:15:54.703Z,3.30
2022-10-04T01:18:22.050Z,2.27
2022-10-04T01:20:57.796Z,5.43
2022-10-04T01:23:35.415Z,3.33
2022-10-04T01:26:05.723Z,1.70
2022-10-04T01:28:34.803Z,5.67
2022-10-04T01:31:02.581Z,5.63
2022-10-04T01:33:31.036Z,3.27
2022-10-04T01:35:58.389Z,2.70
2022-10-04T01:38:25.701Z,2.00
2022-10-04T01:41:00.346Z,3.07
2022-10-04T01:43:33.897Z,4.70
2022-10-04T01:46:09.127Z,2.00
2022-10-04T01:48:38.178Z,2.97
2022-10-04T01:51:13.076Z,4.50
2022-10-04T01:53:51.451Z,4.60
2022-10-04T01:56:25.753Z,3.00
2022-10-04T01:58:59.371Z,4.03
2022-10-04T02:01:45.691Z,4.00
2022-10-04T02:04:28.351Z,3.13
2022-10-04T02:06:59.129Z,3.07
2022-10-04T02:09:32.034Z,4.50
2022-10-04T02:12:00.256Z,3.30
2022-10-04T02:14:32.163Z,6.27
2022-10-04T02:17:07.971Z,2.37
2022-10-04T02:19:41.218Z,3.63
2022-10-04T02:22:10.845Z,1.70
2022-10-04T02:24:43.834Z,4.83
2022-10-04T02:27:12.191Z,3.37
2022-10-04T02:29:39.461Z,4.83
2022-10-04T02:32:27.265Z,3.77
2022-10-04T02:34:56.575Z,4.23
2022-10-04T02:37:26.150Z,2.17
2022-10-04T02:40:00.594Z,3.40
2022-10-04T02:43:07.223Z,2.43
2022-10-04T02:46:10.969Z,2.17
2022-10-04T02:48:46.762Z,3.50
2022-10-04T02:51:46.385Z,3.43
2022-10-04T02:54:37.108Z,1.60
2022-10-04T02:57:05.578Z,2.37
2022-10-04T02:59:35.477Z,4.80
2022-10-04T03:02:03.118Z,4.17
2022-10-04T03:04:40.656Z,2.13
2022-10-04T03:07:09.196Z,5.80
2022-10-04T03:09:37.743Z,3.17
2022-10-04T03:12:06.174Z,6.47
2022-10-04T03:14:34.275Z,1.90
2022-10-04T03:17:06.268Z,2.47
2022-10-04T03:19:35.470Z,4.33
2022-10-04T03:22:08.515Z,2.70
2022-10-04T03:24:50.038Z,4.73
2022-10-04T03:27:26.716Z,2.93
2022-10-04T03:29:59.018Z,6.33
2022-10-04T03:32:30.397Z,1.77
2022-10-04T03:35:00.751Z,2.43
2022-10-04T03:37:31.371Z,3.33
2022-10-04T03:39:59.826Z,3.50
2022-10-04T03:42:34.212Z,2.33
2022-10-04T03:45:06.266Z,5.73
2022-10-04T03:47:38.011Z,3.83
2022-10-04T03:50:11.556Z,2.53
2022-10-04T03:52:41.055Z,2.13
2022-10-04T03:55:10.884Z,3.63
2022-10-04T03:57:38.570Z,5.37
2022-10-04T04:00:07.043Z,3.00
2022-10-04T04:02:50.101Z,2.37
2022-10-04T04:05:24.324Z,2.83
2022-10-04T04:08:10.008Z,5.53
2022-10-04T04:10:46.496Z,1.47
2022-10-04T04:13:24.530Z,4.23
2022-10-04T04:15:55.239Z,1.60
2022-10-04T04:18:25.024Z,2.13
2022-10-04T04:20:58.964Z,2.23
2022-10-04T04:23:48.728Z,3.63
2022-10-04T04:26:31.520Z,5.80
2022-10-04T04:29:09.373Z,3.80
2022-10-04T04:31:53.523Z,4.43
2022-10-04T04:34:31.057Z,5.03
2022-10-04T04:37:04.043Z,2.70
2022-10-04T04:39:43.765Z,3.30
2022-10-04T04:42:11.091Z,2.30
2022-10-04T04:44:53.675Z,3.00
2022-10-04T04:47:33.870Z,2.53
2022-10-04T04:50:19.734Z,1.93
2022-10-04T04:53:12.833Z,2.60
2022-10-04T04:56:02.196Z,4.10
2022-10-04T04:58:36.901Z,2.20
2022-10-04T05:01:07.129Z,3.30
2022-10-04T05:03:34.890Z,3.00
2022-10-04T05:06:05.032Z,3.50
2022-10-04T05:08:38.737Z,2.60
2022-10-04T05:11:08.683Z,3.60
2022-10-04T05:14:02.122Z,2.60
2022-10-04T05:16:51.353Z,3.37
2022-10-04T05:19:35.456Z,2.90
2022-10-04T05:22:14.779Z,2.17
2022-10-04T05:24:44.722Z,3.37
2022-10-04T05:27:32.102Z,4.97
2022-10-04T05:30:21.171Z,4.63
2022-10-04T05:33:02.060Z,2.93
2022-10-04T05:35:38.616Z,1.90
2022-10-04T05:38:37.850Z,2.60
2022-10-04T05:41:42.250Z,1.70
2022-10-04T05:44:31.270Z,4.93
2022-10-04T05:47:05.518Z,3.23
2022-10-04T05:49:44.204Z,7.90
2022-10-04T05:52:36.335Z,3.93
2022-10-04T05:55:16.257Z,4.77
2022-10-04T05:58:18.488Z,2.77
2022-10-04T06:01:17.740Z,3.63
2022-10-04T06:04:03.155Z,2.27
2022-10-04T06:06:45.723Z,2.10
2022-10-04T06:09:31.124Z,4.97
2022-10-04T06:12:26.478Z,3.17
2022-10-04T06:15:03.354Z,2.43
2022-10-04T06:17:48.918Z,4.37
2022-10-04T06:20:35.053Z,1.53
2022-10-04T06:23:11.968Z,4.47
2022-10-04T06:25:50.509Z,1.73
2022-10-04T06:28:29.496Z,2.70
2022-10-04T06:31:11.052Z,7.57
2022-10-04T06:33:48.869Z,3.87
2022-10-04T06:36:25.993Z,3.93
2022-10-04T06:39:10.887Z,3.43
2022-10-04T06:41:44.390Z,2.40
2022-10-04T06:44:25.834Z,3.13
2022-10-04T06:47:21.996Z,2.37
2022-10-04T06:50:00.342Z,2.50
2022-10-04T06:52:38.761Z,4.13
2022-10-04T06:55:23.474Z,6.67
2022-10-04T06:58:12.792Z,5.43
2022-10-04T07:01:19.035Z,1.63
2022-10-04T07:03:51.758Z,4.37
2022-10-04T07:06:25.911Z,5.57
2022-10-04T07:08:59.526Z,3.83
2022-10-04T07:12:08.392Z,3.70
2022-10-04T07:14:43.377Z,5.03
2022-10-04T07:17:15.638Z,2.23
2022-10-04T07:19:47.294Z,4.17
2022-10-04T07:22:31.197Z,2.27
2022-10-04T07:25:16.579Z,4.40
2022-10-04T07:28:26.509Z,3.83
2022-10-04T07:31:23.085Z,3.67
2022-10-04T07:33:55.040Z,2.23
2022-10-04T07:36:28.555Z,2.53
2022-10-04T07:39:11.165Z,3.67
2022-10-04T07:41:47.974Z,3.93
2022-10-04T07:44:22.781Z,3.20
2022-10-04T07:47:05.538Z,4.40
2022-10-04T07:49:39.362Z,3.17
2022-10-04T07:52:41.265Z,5.60
2022-10-04T07:55:33.045Z,3.80
2022-10-04T07:58:32.155Z,7.00
2022-10-04T08:01:14.001Z,4.60
2022-10-04T08:04:18.623Z,2.83
2022-10-04T08:06:56.336Z,3.80
2022-10-04T08:09:29.264Z,6.20
2022-10-04T08:12:05.527Z,3.07
2022-10-04T08:14:46.251Z,3.23
2022-10-04T08:17:52.072Z,2.50
2022-10-04T08:20:40.856Z,4.77
2022-10-04T08:23:27.524Z,2.17
2022-10-04T08:26:00.480Z,6.43
2022-10-04T08:29:04.674Z,3.77
2022-10-04T08:31:54.282Z,4.67
2022-10-04T08:34:40.540Z,5.23
2022-10-04T08:37:30.830Z,2.77
2022-10-04T08:40:33.261Z,4.17
2022-10-04T08:43:24.478Z,4.47
2022-10-04T08:46:22.730Z,2.43
2022-10-04T08:49:08.057Z,2.83
2022-10-04T08:51:51.384Z,3.73
2022-10-04T08:54:27.888Z,4.37
2022-10-04T08:57:16.335Z,2.57
2022-10-04T09:00:04.437Z,2.77
2022-10-04T09:02:54.001Z,4.13
2022-10-04T09:05:42.205Z,5.93
2022-10-04T09:08:46.676Z,2.47
2022-10-04T09:11:41.755Z,3.03
2022-10-04T09:14:33.608Z,3.23
2022-10-04T09:17:22.991Z,4.13
2022-10-04T09:20:09.112Z,2.33
2022-10-04T09:23:20.836Z,2.47
2022-10-04T09:26:06.528Z,3.63
2022-10-04T09:28:55.492Z,8.37
2022-10-04T09:31:40.945Z,1.77
2022-10-04T09:34:45.223Z,3.83
2022-10-04T09:37:32.698Z,4.37
2022-10-04T09:40:34.334Z,3.00
2022-10-04T09:43:07.804Z,4.53
2022-10-04T09:45:48.611Z,3.03
2022-10-04T09:48:33.968Z,3.23
2022-10-04T09:51:26.012Z,3.27
2022-10-04T09:54:15.658Z,2.67
2022-10-04T09:56:59.184Z,3.13
2022-10-04T09:59:53.919Z,3.17
2022-10-04T10:02:59.222Z,3.77
2022-10-04T10:05:35.192Z,2.13
2022-10-04T10:08:36.128Z,2.20
2022-10-04T10:11:46.563Z,6.60
2022-10-04T10:14:51.912Z,4.57
2022-10-04T10:17:51.310Z,3.27
2022-10-04T10:21:00.636Z,4.17
2022-10-04T10:23:50.254Z,4.30
2022-10-04T10:26:41.846Z,4.27
2022-10-04T10:29:15.848Z,3.83
2022-10-04T10:32:21.579Z,2.67
2022-10-04T10:35:10.678Z,5.27
2022-10-04T10:38:04.269Z,2.97
2022-10-04T10:40:59.936Z,2.47
2022-10-04T10:43:38.404Z,3.63
2022-10-04T10:46:27.649Z,1.27
2022-10-04T10:49:10.019Z,3.07
2022-10-04T10:52:01.246Z,4.67
2022-10-04T10:54:37.493Z,2.63
2022-10-04T10:57:23.660Z,2.50
2022-10-04T11:00:17.355Z,3.43
2022-10-04T11:02:51.511Z,3.57
2022-10-04T11:05:38.896Z,2.13
2022-10-04T11:08:43.987Z,3.40
2022-10-04T11:11:23.312Z,2.47
2022-10-04T11:14:02.135Z,3.50
2022-10-04T11:16:47.749Z,3.03
2022-10-04T11:19:29.207Z,1.93
2022-10-04T11:22:47.241Z,1.87
2022-10-04T11:25:35.040Z,2.17
2022-10-04T11:28:08.159Z,4.17
2022-10-04T11:31:13.085Z,2.10
2022-10-04T11:34:29.573Z,2.00
2022-10-04T11:37:36.547Z,2.13
2022-10-04T11:40:24.687Z,1.83
2022-10-04T11:43:26.941Z,2.57
2022-10-04T11:46:08.492Z,1.77
2022-10-04T11:49:05.107Z,0.90
2022-10-04T11:51:32.449Z,3.57
2022-10-04T11:54:09.669Z,2.10
2022-10-04T11:57:04.178Z,2.57
2022-10-04T11:59:55.647Z,1.40
2022-10-04T12:02:50.260Z,2.33
2022-10-04T12:05:33.571Z,1.70
2022-10-04T12:08:18.931Z,1.67
2022-10-04T12:11:13.837Z,2.73
2022-10-04T12:13:47.279Z,1.77
2022-10-04T12:16:45.914Z,1.27
2022-10-04T12:19:37.543Z,4.60
2022-10-04T12:22:25.762Z,3.73
2022-10-04T12:24:59.456Z,1.53
2022-10-04T12:28:11.250Z,3.07
2022-10-04T12:31:03.809Z,1.40
2022-10-04T12:33:46.091Z,2.10
2022-10-04T12:36:31.920Z,2.00
2022-10-04T12:39:17.775Z,3.03
2022-10-04T12:42:11.731Z,2.90
2022-10-04T12:45:20.069Z,1.97
2022-10-04T12:48:05.714Z,1.33
2022-10-04T12:50:45.651Z,1.23
2022-10-04T12:53:23.649Z,2.80
2022-10-04T12:56:21.544Z,3.43
2022-10-04T12:59:06.885Z,2.43
2022-10-04T13:01:40.266Z,1.93
2022-10-04T13:04:31.720Z,1.37
2022-10-04T13:07:02.100Z,1.87
2022-10-04T13:10:23.051Z,3.30
2022-10-04T13:13:05.302Z,2.60
2022-10-04T13:18:59.863Z,1.53
2022-10-04T13:21:39.112Z,1.67
2022-10-04T13:24:59.540Z,3.77
2022-10-04T13:27:50.621Z,3.30
2022-10-04T13:30:24.303Z,1.20
2022-10-04T13:33:14.097Z,2.07
2022-10-04T13:36:08.782Z,1.20
2022-10-04T13:39:07.160Z,1.97
2022-10-04T13:42:15.365Z,1.23
2022-10-04T13:45:12.971Z,2.70
2022-10-04T13:47:59.450Z,2.23
2022-10-04T13:50:45.896Z,3.13
2022-10-04T13:54:09.939Z,2.07
2022-10-04T13:57:04.474Z,1.47
2022-10-04T13:59:37.645Z,1.87
2022-10-04T14:02:23.171Z,1.90
2022-10-04T14:04:53.194Z,1.60
2022-10-04T14:07:38.956Z,2.97
2022-10-04T14:10:38.578Z,1.30
2022-10-04T14:13:38.689Z,1.37
2022-10-04T14:16:09.125Z,1.53
2022-10-04T14:18:45.603Z,2.17
2022-10-04T14:21:43.813Z,1.50
2022-10-04T14:24:33.260Z,3.30
2022-10-04T14:27:13.203Z,2.23
2022-10-04T14:30:08.274Z,2.17
2022-10-04T14:32:52.041Z,2.87
2022-10-04T14:35:35.632Z,1.40
2022-10-04T14:38:38.506Z,2.90
2022-10-04T14:41:17.658Z,1.50
2022-10-04T14:44:00.575Z,1.27
2022-10-04T14:46:45.853Z,2.63
2022-10-04T14:49:44.212Z,2.10
2022-10-04T14:52:18.254Z,1.90
2022-10-04T14:55:03.975Z,1.73
2022-10-04T14:58:10.055Z,2.13
2022-10-04T15:01:06.186Z,3.33
2022-10-04T15:03:52.613Z,3.77
2022-10-04T15:06:26.520Z,1.97
2022-10-04T15:09:07.068Z,2.80
2022-10-04T15:11:44.251Z,3.77
2022-10-04T15:14:34.176Z,2.10
2022-10-04T15:17:11.447Z,2.20
2022-10-04T15:20:06.445Z,2.73
2022-10-04T15:22:53.167Z,2.07
2022-10-04T15:25:41.454Z,2.13
2022-10-04T15:28:35.897Z,4.27
2022-10-04T15:31:12.649Z,2.00
2022-10-04T15:34:18.871Z,1.63
2022-10-04T15:36:57.936Z,3.00
2022-10-04T15:39:58.166Z,1.20
2022-10-04T15:42:41.874Z,5.63
2022-10-04T15:45:18.026Z,2.57
2022-10-04T15:48:11.209Z,1.50
2022-10-04T15:51:11.233Z,1.33
2022-10-04T15:54:16.465Z,1.37
2022-10-04T15:56:49.715Z,1.40
2022-10-04T15:59:29.911Z,2.07
2022-10-04T16:02:34.693Z,1.50
2022-10-04T16:05:41.662Z,2.67
2022-10-04T16:08:26.767Z,1.30
2022-10-04T16:11:16.624Z,2.37
2022-10-04T16:13:56.829Z,1.20
2022-10-04T16:16:39.973Z,1.80
2022-10-04T16:19:44.838Z,4.90
2022-10-04T16:22:20.134Z,2.33
2022-10-04T16:25:16.286Z,4.97
2022-10-04T16:28:09.275Z,2.53
2022-10-04T16:31:08.567Z,2.77
2022-10-04T16:33:43.672Z,2.43
2022-10-04T16:36:20.445Z,2.10
2022-10-04T16:39:10.878Z,2.37
2022-10-04T16:41:44.462Z,5.30
2022-10-04T16:44:46.441Z,2.57
2022-10-04T16:47:56.710Z,2.40
2022-10-04T16:51:00.500Z,2.63
2022-10-04T16:53:39.818Z,5.80
2022-10-04T16:56:20.011Z,3.67
2022-10-04T16:59:03.131Z,4.17
2022-10-04T17:02:08.167Z,3.40
2022-10-04T17:04:41.323Z,6.17
2022-10-04T17:07:30.535Z,3.10
2022-10-04T17:10:21.317Z,5.73
2022-10-04T17:12:58.614Z,1.73
2022-10-04T17:15:49.066Z,7.70
2022-10-04T17:18:44.698Z,7.17
2022-10-04T17:21:46.094Z,6.33
2022-10-04T17:24:22.451Z,9.97
2022-10-04T17:27:26.223Z,12.87
2022-10-04T17:30:14.141Z,25.70
2022-10-04T17:32:45.765Z,29.83
2022-10-04T17:35:37.889Z,20.77
2022-10-04T17:38:25.044Z,28.90
2022-10-04T17:41:27.314Z,43.53
2022-10-04T17:44:14.247Z,38.43
2022-10-04T17:47:54.354Z,22.30
2022-10-04T17:51:08.576Z,21.67
2022-10-04T17:54:00.221Z,29.37
2022-10-04T17:56:51.811Z,20.70
2022-10-04T17:59:31.097Z,24.93
2022-10-04T18:02:10.349Z,19.13
2022-10-04T18:04:50.530Z,31.77
2022-10-04T18:07:23.155Z,30.60
2022-10-04T18:10:02.332Z,38.37
2022-10-04T18:12:44.951Z,32.80
2022-10-04T18:15:28.722Z,16.43
2022-10-04T18:18:14.667Z,22.03
2022-10-04T18:20:54.065Z,10.37
2022-10-04T18:23:28.181Z,10.00
2022-10-04T18:25:59.704Z,15.53
2022-10-04T18:28:27.473Z,7.57
2022-10-04T18:31:01.415Z,11.67
2022-10-04T18:33:40.538Z,11.03
2022-10-04T18:36:20.999Z,12.40
2022-10-04T18:39:06.271Z,15.37
2022-10-04T18:42:01.295Z,13.30
2022-10-04T18:44:44.037Z,8.47
2022-10-04T18:47:21.139Z,9.17
2022-10-04T18:49:51.828Z,11.07
2022-10-04T18:52:47.742Z,12.87
2022-10-04T18:55:26.576Z,7.97
2022-10-04T18:58:36.089Z,8.40
2022-10-04T19:01:52.281Z,12.87
2022-10-04T19:04:26.873Z,9.53
2022-10-04T19:07:03.199Z,11.17
2022-10-04T19:09:51.424Z,11.07
2022-10-04T19:12:43.475Z,7.63
2022-10-04T19:15:39.499Z,15.23
2022-10-04T19:18:18.780Z,7.73
2022-10-04T19:20:58.359Z,7.53
2022-10-04T19:23:50.733Z,10.67
2022-10-04T19:26:50.840Z,10.50
2022-10-04T19:29:43.055Z,4.23
2022-10-04T19:32:13.706Z,7.97
2022-10-04T19:35:03.927Z,9.77
2022-10-04T19:38:21.490Z,10.17
2022-10-04T19:40:57.916Z,12.33
2022-10-04T19:43:47.598Z,11.60
2022-10-04T19:46:41.962Z,12.73
2022-10-04T19:49:31.838Z,10.47
2022-10-04T19:52:26.494Z,14.80
2022-10-04T19:55:03.343Z,11.53
2022-10-04T19:57:38.159Z,14.70
2022-10-04T20:00:16.901Z,10.10
2022-10-04T20:02:48.390Z,13.50
2022-10-04T20:05:24.874Z,9.73
2022-10-04T20:08:01.217Z,13.47
2022-10-04T20:10:37.213Z,9.90
2022-10-04T20:13:10.826Z,8.27
2022-10-04T20:15:38.615Z,8.20
2022-10-04T20:18:33.919Z,8.20
2022-10-04T20:21:01.428Z,8.90
2022-10-04T20:23:38.320Z,11.43
2022-10-04T20:26:53.036Z,8.83
2022-10-04T20:29:39.437Z,10.20
2022-10-04T20:32:08.951Z,7.13
2022-10-04T20:34:39.272Z,7.70
2022-10-04T20:37:10.399Z,5.93
2022-10-04T20:39:40.765Z,5.60
2022-10-04T20:42:25.258Z,5.70
2022-10-04T20:45:21.032Z,5.27
2022-10-04T20:47:52.254Z,7.27
2022-10-04T20:50:39.839Z,7.83
2022-10-04T20:53:18.615Z,5.73
2022-10-04T20:55:46.760Z,9.53
2022-10-04T20:58:35.035Z,10.27
2022-10-04T21:01:16.704Z,7.97
2022-10-04T21:03:44.339Z,6.00
2022-10-04T21:06:12.131Z,6.80
2022-10-04T21:08:41.056Z,6.67
2022-10-04T21:11:21.045Z,7.20
2022-10-04T21:13:52.211Z,5.67
2022-10-04T21:16:41.617Z,5.93
2022-10-04T21:19:34.400Z,6.77
2022-10-04T21:22:10.012Z,7.27
2022-10-04T21:24:49.477Z,5.70
2022-10-04T21:27:25.989Z,7.13
2022-10-04T21:29:53.793Z,5.50
2022-10-04T21:32:22.305Z,5.63
2022-10-04T21:34:54.389Z,6.47
2022-10-04T21:37:22.145Z,5.17
2022-10-04T21:39:49.528Z,5.57
2022-10-04T21:42:17.377Z,5.93
2022-10-04T21:44:44.618Z,6.37
2022-10-04T21:47:11.876Z,6.60
2022-10-04T21:49:39.607Z,6.37
2022-10-04T21:52:07.142Z,6.73
2022-10-04T21:54:35.357Z,9.33
2022-10-04T21:57:02.648Z,7.50
2022-10-04T21:59:30.004Z,10.23
2022-10-04T22:01:57.429Z,7.17
2022-10-04T22:04:24.714Z,7.00
2022-10-04T22:06:51.972Z,7.63
2022-10-04T22:09:19.209Z,7.00
2022-10-04T22:11:46.466Z,7.27
2022-10-04T22:14:13.705Z,5.73
2022-10-04T22:16:41.149Z,5.80
2022-10-04T22:19:08.618Z,5.50
2022-10-04T22:21:35.948Z,5.67
2022-10-04T22:24:04.292Z,5.30
2022-10-04T22:26:32.048Z,6.97
2022-10-04T22:28:59.324Z,8.13
2022-10-04T22:31:28.929Z,8.20
2022-10-04T22:33:57.025Z,7.20
2022-10-04T22:36:26.969Z,6.67
2022-10-04T22:38:59.601Z,8.17
2022-10-04T22:41:29.962Z,7.07
2022-10-04T22:43:59.668Z,8.43
2022-10-04T22:46:36.053Z,8.00
2022-10-04T22:49:13.138Z,7.07
2022-10-04T22:51:42.195Z,7.03
2022-10-04T22:54:15.706Z,8.73
2022-10-04T22:56:43.187Z,9.63
2022-10-04T22:59:12.913Z,7.63
2022-10-04T23:01:40.561Z,6.83
2022-10-04T23:04:21.852Z,6.03
2022-10-04T23:06:51.011Z,9.90
2022-10-04T23:09:18.985Z,6.40
2022-10-04T23:11:46.597Z,5.13
2022-10-04T23:14:13.953Z,7.17
2022-10-04T23:16:41.656Z,5.60
2022-10-04T23:19:08.830Z,5.90
2022-10-04T23:21:39.024Z,5.57
2022-10-04T23:24:22.377Z,6.60
2022-10-04T23:26:55.380Z,6.23
2022-10-04T23:29:27.957Z,5.53
2022-10-04T23:31:56.867Z,5.93
2022-10-04T23:34:55.683Z,5.70
2022-10-04T23:37:27.301Z,5.90
2022-10-04T23:39:54.527Z,5.67
2022-10-04T23:42:36.724Z,7.30
2022-10-04T23:45:15.892Z,5.43
2022-10-04T23:47:43.393Z,5.80
2022-10-04T23:50:29.879Z,5.60
2022-10-04T23:53:04.318Z,9.10
2022-10-04T23:55:38.546Z,7.53
2022-10-04T23:58:28.497Z,9.03
